Time;durP1;ratioP1;P1;durP2;ratioP2;P2;SDS_P1;SDS_P2;PMS_P1;PMS_P2;Temp;Humidity;BMP_temperature;BMP_pressure;BME280_temperature;BME280_humidity;BME280_pressure;Samples;Min_cycle;Max_cycle;Signal;HPM_P1;HPM_P2
2022/05/22 00:01:59;;;;;;;3.07;1.10;;;11.40;99.90;;;;;;5007672;28;20421;-67
2022/05/22 00:04:25;;;;;;;1.93;1.07;;;11.20;99.90;;;;;;5008431;28;20945;-68
2022/05/22 00:06:50;;;;;;;4.07;1.40;;;11.20;99.90;;;;;;5008056;28;20195;-68
2022/05/22 00:09:16;;;;;;;1.97;1.03;;;11.20;99.90;;;;;;5008495;28;20194;-68
2022/05/22 00:11:42;;;;;;;3.97;1.33;;;11.20;99.90;;;;;;5007834;28;20187;-68
2022/05/22 00:14:11;;;;;;;4.40;1.23;;;11.10;99.90;;;;;;5007900;28;20194;-68
2022/05/22 00:16:40;;;;;;;5.50;1.50;;;11.10;99.90;;;;;;5007681;28;20194;-68
2022/05/22 00:19:20;;;;;;;4.13;1.43;;;11.10;99.90;;;;;;5006152;28;20441;-67
2022/05/22 00:21:46;;;;;;;4.27;1.60;;;11.10;99.90;;;;;;5008129;28;20441;-67
2022/05/22 00:24:12;;;;;;;2.13;0.90;;;11.10;99.90;;;;;;5008253;28;20437;-68
2022/05/22 00:26:41;;;;;;;3.37;1.60;;;11.00;99.90;;;;;;5007637;28;20426;-68
2022/05/22 00:29:07;;;;;;;3.40;1.23;;;11.00;99.90;;;;;;5007741;28;20842;-67
2022/05/22 00:31:33;;;;;;;6.63;1.37;;;11.00;99.90;;;;;;5007140;28;20426;-68
2022/05/22 00:33:59;;;;;;;3.30;1.17;;;11.00;99.90;;;;;;5008079;28;20422;-67
2022/05/22 00:36:25;;;;;;;5.23;1.50;;;10.90;99.90;;;;;;5007612;28;20426;-67
2022/05/22 00:38:51;;;;;;;2.60;0.87;;;10.90;99.90;;;;;;5007620;28;20187;-68
2022/05/22 00:41:17;;;;;;;1.80;0.90;;;10.90;99.90;;;;;;5007665;28;20222;-67
2022/05/22 00:43:51;;;;;;;4.73;1.80;;;10.90;99.90;;;;;;5007500;28;20670;-68
2022/05/22 00:46:18;;;;;;;3.03;1.10;;;10.80;99.90;;;;;;5007712;28;21222;-68
2022/05/22 00:48:47;;;;;;;3.63;1.00;;;10.90;99.90;;;;;;5003251;28;20429;-68
2022/05/22 00:51:26;;;;;;;5.10;1.40;;;10.90;99.90;;;;;;5006551;28;20499;-67
2022/05/22 00:53:57;;;;;;;4.40;1.20;;;10.90;99.90;;;;;;5006072;28;20460;-68
2022/05/22 00:56:33;;;;;;;1.97;0.97;;;10.90;99.90;;;;;;5006533;28;20918;-68
2022/05/22 00:58:59;;;;;;;2.47;1.30;;;10.80;99.90;;;;;;5006185;28;20516;-68
2022/05/22 01:01:25;;;;;;;2.23;0.90;;;10.80;99.90;;;;;;5005986;28;20781;-68
2022/05/22 01:03:53;;;;;;;2.37;1.27;;;10.80;99.90;;;;;;5007096;28;20430;-68
2022/05/22 01:06:22;;;;;;;5.70;1.10;;;10.80;99.90;;;;;;5009711;28;20210;-67
2022/05/22 01:08:48;;;;;;;2.27;1.27;;;10.70;99.90;;;;;;5011576;28;20512;-68
2022/05/22 01:11:30;;;;;;;2.80;1.27;;;10.70;99.90;;;;;;5011485;28;20517;-68
2022/05/22 01:14:02;;;;;;;3.47;1.20;;;10.70;99.90;;;;;;5010957;28;20190;-68
2022/05/22 01:16:28;;;;;;;1.70;1.00;;;10.60;99.90;;;;;;5011036;28;20433;-67
2022/05/22 01:18:56;;;;;;;2.23;1.00;;;10.60;99.90;;;;;;5011018;28;20429;-68
2022/05/22 01:21:25;;;;;;;3.10;1.23;;;10.60;99.90;;;;;;5011265;28;20509;-68
2022/05/22 01:23:52;;;;;;;2.20;0.97;;;10.50;99.90;;;;;;5011150;28;20433;-67
2022/05/22 01:26:18;;;;;;;2.10;0.97;;;10.50;99.90;;;;;;5011171;28;20429;-67
2022/05/22 01:28:44;;;;;;;2.63;1.33;;;10.50;99.90;;;;;;5010848;28;20915;-68
2022/05/22 01:31:11;;;;;;;2.70;1.07;;;10.50;99.90;;;;;;5011139;28;20425;-68
2022/05/22 01:33:38;;;;;;;2.00;1.00;;;10.50;99.90;;;;;;5011036;28;20639;-68
2022/05/22 01:36:05;;;;;;;2.20;1.00;;;10.50;99.90;;;;;;5010862;28;20444;-68
2022/05/22 01:38:32;;;;;;;3.00;1.20;;;10.50;99.90;;;;;;5010896;28;20437;-67
2022/05/22 01:40:58;;;;;;;3.60;1.00;;;10.50;99.90;;;;;;5011383;28;20795;-68
2022/05/22 01:43:24;;;;;;;3.57;1.10;;;10.40;99.90;;;;;;5010162;28;20437;-68
2022/05/22 01:45:50;;;;;;;3.30;1.33;;;10.30;99.90;;;;;;5010512;28;20203;-68
2022/05/22 01:48:15;;;;;;;2.90;1.40;;;10.30;99.90;;;;;;5010580;28;20426;-68
2022/05/22 01:50:44;;;;;;;5.50;1.13;;;10.30;99.90;;;;;;5011180;28;20919;-67
2022/05/22 01:53:10;;;;;;;4.33;1.40;;;10.30;99.90;;;;;;5009772;28;20217;-67
2022/05/22 01:55:36;;;;;;;2.70;1.30;;;10.20;99.90;;;;;;5010793;28;20460;-67
2022/05/22 01:58:06;;;;;;;2.87;1.47;;;10.10;99.90;;;;;;5010238;28;20434;-68
2022/05/22 02:00:32;;;;;;;2.30;1.20;;;10.10;99.90;;;;;;5010258;28;21008;-68
2022/05/22 02:02:58;;;;;;;6.63;1.23;;;10.10;99.90;;;;;;5010430;28;20457;-68
2022/05/22 02:05:24;;;;;;;1.93;0.93;;;10.10;99.90;;;;;;5010343;28;20389;-68
2022/05/22 02:10:35;;;;;;;2.40;1.30;;;10.00;99.90;;;;;;5007939;28;20452;-68
2022/05/22 02:13:01;;;;;;;2.87;1.53;;;10.00;99.90;;;;;;5009779;28;20438;-67
2022/05/22 02:15:28;;;;;;;3.27;1.60;;;10.00;99.90;;;;;;5010008;28;20540;-68
2022/05/22 02:17:54;;;;;;;5.23;1.50;;;10.00;99.90;;;;;;5010078;28;20477;-67
2022/05/22 02:20:20;;;;;;;3.20;1.57;;;10.00;99.90;;;;;;5009956;28;20462;-68
2022/05/22 02:22:52;;;;;;;4.70;1.60;;;10.00;99.90;;;;;;5010346;28;20516;-67
2022/05/22 02:25:26;;;;;;;5.33;1.23;;;10.00;99.90;;;;;;5010199;28;20415;-67
2022/05/22 02:27:52;;;;;;;2.03;1.00;;;10.00;99.90;;;;;;5004417;28;20472;-68
2022/05/22 02:30:20;;;;;;;2.37;0.93;;;10.10;99.90;;;;;;5009764;28;20430;-67
2022/05/22 02:32:46;;;;;;;6.40;1.43;;;10.10;99.90;;;;;;5009624;28;20191;-67
2022/05/22 02:35:14;;;;;;;1.70;0.80;;;10.20;99.90;;;;;;5008481;28;20437;-68
2022/05/22 02:37:48;;;;;;;2.57;1.30;;;10.20;99.90;;;;;;5009989;28;20253;-68
2022/05/22 02:40:17;;;;;;;2.10;1.27;;;10.20;99.90;;;;;;5009845;28;20472;-67
2022/05/22 02:42:48;;;;;;;3.07;1.20;;;10.20;99.90;;;;;;5009638;28;20521;-68
2022/05/22 02:45:16;;;;;;;5.93;1.37;;;10.30;99.90;;;;;;5008960;28;20437;-68
2022/05/22 02:47:42;;;;;;;2.83;1.27;;;10.20;99.90;;;;;;5009740;28;20468;-68
2022/05/22 02:50:10;;;;;;;4.97;1.43;;;10.20;99.90;;;;;;5004138;28;20458;-68
2022/05/22 02:52:36;;;;;;;2.13;1.27;;;10.10;99.90;;;;;;5008477;28;20441;-68
2022/05/22 02:55:02;;;;;;;3.13;1.27;;;10.10;99.90;;;;;;5008146;28;20890;-67
2022/05/22 02:57:28;;;;;;;3.57;1.27;;;10.00;99.90;;;;;;5009218;28;20187;-68
2022/05/22 02:59:54;;;;;;;2.27;1.20;;;10.00;99.90;;;;;;5008451;28;20942;-67
2022/05/22 03:02:20;;;;;;;2.80;1.13;;;10.00;99.90;;;;;;5009327;28;20191;-67
2022/05/22 03:04:49;;;;;;;2.60;1.20;;;9.90;99.90;;;;;;5008951;28;20461;-68
2022/05/22 03:07:17;;;;;;;1.80;1.20;;;9.90;99.90;;;;;;5009253;28;20434;-68
2022/05/22 03:09:45;;;;;;;2.00;0.93;;;9.90;99.90;;;;;;5009188;28;20425;-67
2022/05/22 03:12:15;;;;;;;3.77;1.40;;;9.90;99.90;;;;;;5009196;28;20438;-67
2022/05/22 03:14:43;;;;;;;3.07;1.40;;;9.90;99.90;;;;;;5009334;28;20842;-68
2022/05/22 03:17:09;;;;;;;2.13;1.00;;;9.90;99.90;;;;;;5009013;28;20484;-68
2022/05/22 03:19:34;;;;;;;5.10;1.40;;;9.90;99.90;;;;;;5007080;28;20466;-67
2022/05/22 03:22:00;;;;;;;2.87;1.33;;;9.80;99.90;;;;;;5009017;28;20571;-68
2022/05/22 03:24:26;;;;;;;2.30;1.17;;;9.80;99.90;;;;;;5001430;28;20215;-67
2022/05/22 03:26:52;;;;;;;1.70;0.90;;;9.80;99.90;;;;;;5008646;28;20228;-68
2022/05/22 03:29:18;;;;;;;1.80;1.17;;;9.70;99.90;;;;;;5008606;28;20187;-67
2022/05/22 03:31:43;;;;;;;3.40;1.13;;;9.70;99.90;;;;;;5008518;28;20179;-68
2022/05/22 03:34:09;;;;;;;11.03;1.27;;;9.60;99.90;;;;;;5009150;28;21108;-67
2022/05/22 03:36:38;;;;;;;2.10;1.13;;;9.60;99.90;;;;;;5008623;28;20179;-67
2022/05/22 03:39:04;;;;;;;2.47;1.30;;;9.60;99.90;;;;;;5005653;28;20179;-67
2022/05/22 03:41:30;;;;;;;3.47;1.80;;;9.60;99.90;;;;;;5005993;28;20964;-67
2022/05/22 03:43:55;;;;;;;2.27;1.17;;;9.50;99.90;;;;;;5008952;28;20187;-67
2022/05/22 03:46:21;;;;;;;4.23;1.40;;;9.50;99.90;;;;;;5017529;28;20626;-67
2022/05/22 03:48:47;;;;;;;3.30;1.33;;;9.60;99.90;;;;;;5013771;28;20178;-67
2022/05/22 03:51:13;;;;;;;2.60;1.30;;;9.60;99.90;;;;;;5008282;28;20186;-67
2022/05/22 03:53:39;;;;;;;2.40;1.47;;;9.50;99.90;;;;;;5008615;28;20476;-67
2022/05/22 03:56:12;;;;;;;1.67;0.90;;;9.40;99.90;;;;;;5009490;28;20190;-67
2022/05/22 03:58:38;;;;;;;4.53;1.57;;;9.40;99.90;;;;;;5008105;28;20187;-67
2022/05/22 04:01:04;;;;;;;2.53;1.37;;;9.40;99.90;;;;;;5006853;28;20543;-68
2022/05/22 04:03:30;;;;;;;3.10;1.57;;;9.50;99.90;;;;;;5009642;28;20207;-67
2022/05/22 04:05:55;;;;;;;2.97;1.40;;;9.50;99.90;;;;;;5010747;28;20438;-67
2022/05/22 04:08:21;;;;;;;2.30;1.20;;;9.50;99.90;;;;;;5008360;28;20202;-68
2022/05/22 04:10:47;;;;;;;5.07;1.80;;;9.50;99.90;;;;;;5008236;28;20768;-67
2022/05/22 04:13:13;;;;;;;2.17;1.10;;;9.50;99.90;;;;;;5008297;28;20183;-67
2022/05/22 04:15:38;;;;;;;1.87;1.10;;;9.50;99.90;;;;;;5007920;28;20422;-68
2022/05/22 04:18:04;;;;;;;2.53;1.40;;;9.50;99.90;;;;;;5010594;28;20647;-67
2022/05/22 04:20:31;;;;;;;3.70;1.53;;;9.50;99.90;;;;;;5008138;28;20218;-67
2022/05/22 04:25:55;;;;;;;3.03;1.63;;;9.60;99.90;;;;;;5008419;28;20464;-67
2022/05/22 04:28:25;;;;;;;2.40;1.37;;;9.70;99.90;;;;;;5008109;28;20453;-67
2022/05/22 04:30:51;;;;;;;4.00;1.57;;;9.70;99.90;;;;;;5007688;28;20437;-67
2022/05/22 04:33:17;;;;;;;16.03;1.97;;;9.80;99.90;;;;;;5008311;28;20422;-68
2022/05/22 04:35:43;;;;;;;2.17;1.30;;;9.80;99.90;;;;;;5008228;28;20300;-67
2022/05/22 04:38:10;;;;;;;3.20;1.60;;;9.90;99.90;;;;;;5007989;28;20194;-67
2022/05/22 04:40:37;;;;;;;3.90;1.37;;;10.00;99.90;;;;;;5008967;28;20465;-68
2022/05/22 04:43:02;;;;;;;4.80;1.67;;;10.00;99.90;;;;;;5009024;28;20906;-67
2022/05/22 04:45:28;;;;;;;2.67;1.60;;;10.10;99.90;;;;;;5011124;28;20426;-68
2022/05/22 04:47:54;;;;;;;5.43;1.40;;;10.10;99.90;;;;;;5012018;28;20241;-67
2022/05/22 04:50:20;;;;;;;5.83;1.87;;;10.20;99.90;;;;;;5007296;28;20183;-67
2022/05/22 04:52:45;;;;;;;6.07;2.30;;;10.20;99.90;;;;;;5010129;28;20202;-68
2022/05/22 04:55:11;;;;;;;4.03;1.70;;;10.30;99.90;;;;;;5010110;28;20195;-67
2022/05/22 04:57:37;;;;;;;3.30;1.50;;;10.40;99.90;;;;;;5010527;28;20210;-67
2022/05/22 05:00:09;;;;;;;16.13;1.80;;;10.40;99.90;;;;;;5010763;28;20217;-67
2022/05/22 05:02:35;;;;;;;4.90;1.80;;;10.50;99.90;;;;;;5010223;28;20597;-67
2022/05/22 05:05:01;;;;;;;2.20;1.30;;;10.60;99.90;;;;;;5011002;28;20489;-67
2022/05/22 05:07:27;;;;;;;2.50;1.50;;;10.70;99.90;;;;;;5011070;28;20413;-68
2022/05/22 05:09:52;;;;;;;2.43;1.77;;;10.80;99.90;;;;;;5011163;28;20190;-68
2022/05/22 05:12:19;;;;;;;5.27;1.47;;;10.80;99.90;;;;;;5011199;28;20191;-67
2022/05/22 05:14:46;;;;;;;4.10;1.40;;;11.00;99.90;;;;;;5011406;28;21031;-67
2022/05/22 05:17:14;;;;;;;2.60;1.40;;;11.10;99.90;;;;;;5010276;28;21257;-68
2022/05/22 05:19:40;;;;;;;4.13;1.53;;;11.20;99.90;;;;;;5011357;28;20555;-68
2022/05/22 05:22:06;;;;;;;4.00;1.43;;;11.30;99.90;;;;;;5011263;28;20442;-68
2022/05/22 05:24:33;;;;;;;3.43;1.77;;;11.40;99.90;;;;;;5011400;28;20422;-68
2022/05/22 05:26:59;;;;;;;2.47;1.50;;;11.50;99.90;;;;;;5011194;28;20281;-67
2022/05/22 05:29:25;;;;;;;2.67;1.03;;;11.60;99.90;;;;;;5011041;28;20422;-68
2022/05/22 05:31:51;;;;;;;2.27;1.17;;;11.60;99.90;;;;;;5010403;28;20426;-68
2022/05/22 05:34:17;;;;;;;1.87;1.20;;;11.70;99.90;;;;;;5010973;28;20429;-67
2022/05/22 05:36:43;;;;;;;3.97;1.20;;;11.80;99.90;;;;;;5010927;28;20687;-68
2022/05/22 05:39:10;;;;;;;2.37;1.20;;;11.90;99.90;;;;;;5010310;28;20996;-68
2022/05/22 05:41:35;;;;;;;2.73;1.20;;;12.00;99.90;;;;;;5010875;28;20414;-68
2022/05/22 05:44:05;;;;;;;3.00;1.10;;;12.10;99.90;;;;;;5010618;28;20483;-68
2022/05/22 05:46:38;;;;;;;1.97;0.93;;;12.30;99.90;;;;;;5003470;28;20214;-68
2022/05/22 05:49:05;;;;;;;9.53;1.80;;;12.50;99.90;;;;;;5010883;28;20444;-67
2022/05/22 05:51:31;;;;;;;2.03;0.90;;;12.60;99.90;;;;;;5009960;28;20434;-68
2022/05/22 05:53:57;;;;;;;2.37;1.20;;;12.80;99.90;;;;;;5010234;28;20461;-68
2022/05/22 05:56:23;;;;;;;5.33;1.33;;;12.90;99.90;;;;;;5010452;28;20187;-68
2022/05/22 05:58:49;;;;;;;2.03;1.10;;;13.00;99.90;;;;;;5010205;28;20783;-68
2022/05/22 06:01:16;;;;;;;5.07;1.40;;;13.10;99.90;;;;;;5010129;28;20239;-68
2022/05/22 06:03:42;;;;;;;2.90;1.23;;;13.20;99.90;;;;;;5009996;28;20421;-68
2022/05/22 06:06:13;;;;;;;8.87;0.97;;;13.30;99.90;;;;;;5010177;28;20793;-68
2022/05/22 06:08:40;;;;;;;2.73;1.20;;;13.50;99.90;;;;;;5008702;28;20213;-68
2022/05/22 06:11:05;;;;;;;2.20;0.93;;;13.60;99.90;;;;;;5010217;28;20577;-67
2022/05/22 06:13:32;;;;;;;2.13;1.00;;;13.70;99.90;;;;;;5009854;28;20537;-68
2022/05/22 06:15:58;;;;;;;1.70;0.83;;;13.90;99.90;;;;;;5009952;28;20183;-68
2022/05/22 06:18:24;;;;;;;2.67;1.23;;;14.00;99.90;;;;;;5006801;28;20513;-68
2022/05/22 06:20:50;;;;;;;2.33;1.43;;;14.10;99.90;;;;;;5009874;28;20501;-67
2022/05/22 06:23:16;;;;;;;3.47;0.97;;;14.30;99.90;;;;;;5009691;28;20520;-68
2022/05/22 06:25:44;;;;;;;5.20;1.50;;;14.40;99.90;;;;;;5010095;28;20475;-68
2022/05/22 06:28:14;;;;;;;2.17;1.00;;;14.50;99.90;;;;;;5009491;28;20543;-68
2022/05/22 06:30:40;;;;;;;3.33;0.90;;;14.50;99.90;;;;;;5009228;28;20429;-68
2022/05/22 06:33:10;;;;;;;2.13;1.00;;;14.60;99.90;;;;;;5009545;28;20430;-68
2022/05/22 06:35:40;;;;;;;1.60;0.87;;;14.70;99.30;;;;;;5014580;28;20501;-67
2022/05/22 06:38:07;;;;;;;5.00;1.10;;;14.80;99.80;;;;;;5009604;28;20422;-68
2022/05/22 06:40:32;;;;;;;2.43;1.20;;;14.90;99.00;;;;;;5009611;28;20519;-68
2022/05/22 06:43:01;;;;;;;2.17;1.27;;;15.00;98.50;;;;;;5009471;28;20880;-67
2022/05/22 06:45:27;;;;;;;2.17;0.83;;;15.00;99.00;;;;;;5001920;28;20574;-68
2022/05/22 06:47:53;;;;;;;3.57;1.10;;;15.10;98.00;;;;;;5009416;28;20430;-68
2022/05/22 06:50:22;;;;;;;1.80;1.00;;;15.20;97.50;;;;;;5009408;28;20226;-68
2022/05/22 06:52:48;;;;;;;1.83;0.90;;;15.50;97.10;;;;;;5002706;28;20234;-68
2022/05/22 06:55:16;;;;;;;1.97;1.00;;;15.60;96.50;;;;;;5007342;28;20430;-68
2022/05/22 06:57:42;;;;;;;3.20;1.30;;;15.70;96.40;;;;;;5008039;28;20984;-68
2022/05/22 07:00:12;;;;;;;5.07;1.20;;;15.90;96.00;;;;;;5007741;28;20469;-68
2022/05/22 07:02:39;;;;;;;3.00;1.10;;;16.10;95.50;;;;;;5008001;28;20179;-68
2022/05/22 07:05:05;;;;;;;7.70;1.47;;;16.30;95.10;;;;;;5007982;28;20448;-68
2022/05/22 07:07:31;;;;;;;2.40;1.20;;;16.50;94.50;;;;;;5009169;28;20783;-68
2022/05/22 07:09:57;;;;;;;2.03;1.10;;;16.60;94.40;;;;;;5008999;28;20428;-68
2022/05/22 07:12:23;;;;;;;3.10;0.90;;;16.70;94.40;;;;;;5009838;28;20186;-68
2022/05/22 07:14:53;;;;;;;1.73;0.83;;;17.00;93.50;;;;;;5008401;28;20281;-66
2022/05/22 07:17:23;;;;;;;2.43;1.03;;;17.10;93.60;;;;;;5009229;28;20426;-66
2022/05/22 07:19:50;;;;;;;7.00;1.10;;;17.50;92.80;;;;;;5007329;28;20458;-66
2022/05/22 07:22:15;;;;;;;2.10;0.73;;;17.60;92.20;;;;;;5008668;28;20453;-65
2022/05/22 07:24:41;;;;;;;6.73;0.90;;;17.70;92.10;;;;;;5009187;28;20487;-66
2022/05/22 07:27:06;;;;;;;3.30;0.80;;;18.30;90.80;;;;;;5008999;28;20262;-65
2022/05/22 07:29:32;;;;;;;2.00;0.80;;;18.50;90.80;;;;;;5008833;28;20193;-66
2022/05/22 07:31:58;;;;;;;2.87;0.97;;;18.80;89.80;;;;;;5008755;28;20189;-66
2022/05/22 07:34:25;;;;;;;4.23;0.70;;;19.00;89.10;;;;;;5008758;28;20616;-65
2022/05/22 07:37:01;;;;;;;5.07;1.20;;;19.60;87.30;;;;;;5008443;28;20195;-65
2022/05/22 07:39:27;;;;;;;1.60;0.70;;;20.40;83.90;;;;;;5005910;28;20429;-66
2022/05/22 07:41:53;;;;;;;5.57;1.50;;;21.30;82.80;;;;;;5008343;28;20491;-65
2022/05/22 07:44:19;;;;;;;1.40;0.60;;;21.90;77.70;;;;;;5008256;28;20916;-66
2022/05/22 07:46:45;;;;;;;1.70;0.87;;;22.60;75.20;;;;;;5008264;28;20185;-66
2022/05/22 07:50:16;;;;;;;1.70;0.80;;;23.00;74.10;;;;;;5010483;28;20188;-66
2022/05/22 07:52:08;;;;;;;1.77;0.77;;;23.10;71.20;;;;;;5008609;28;20548;-66
2022/05/22 07:54:37;;;;;;;3.10;1.37;;;23.10;73.30;;;;;;5007479;28;20503;-66
2022/05/22 07:57:03;;;;;;;3.10;0.80;;;23.80;73.20;;;;;;5008610;28;20329;-65
2022/05/22 07:59:29;;;;;;;2.65;1.00;;;24.70;66.80;;;;;;5009294;28;20222;-66
2022/05/22 08:01:55;;;;;;;1.60;0.70;;;25.60;64.30;;;;;;5008062;28;20320;-66
2022/05/22 08:04:20;;;;;;;4.45;1.00;;;25.60;63.50;;;;;;5008358;28;20186;-66
2022/05/22 08:06:46;;;;;;;2.20;0.90;;;25.40;63.80;;;;;;5008188;28;20486;-66
2022/05/22 08:09:11;;;;;;;4.70;1.25;;;25.30;63.60;;;;;;5008307;28;20207;-65
2022/05/22 08:11:37;;;;;;;3.35;0.70;;;25.20;63.40;;;;;;5008182;28;20190;-65
2022/05/22 08:14:03;;;;;;;1.85;0.82;;;25.40;61.00;;;;;;5007874;28;20715;-65
2022/05/22 08:16:29;;;;;;;6.50;1.00;;;25.40;61.30;;;;;;5007847;28;20194;-66
2022/05/22 08:18:54;;;;;;;1.60;0.70;;;24.80;67.10;;;;;;5008378;28;20245;-65
2022/05/22 08:21:20;;;;;;;12.40;1.60;;;24.90;65.20;;;;;;5008474;28;20216;-66
2022/05/22 08:23:46;;;;;;;2.33;0.80;;;25.70;64.00;;;;;;5004096;28;20182;-65
2022/05/22 08:26:11;;;;;;;10.07;1.00;;;24.80;66.20;;;;;;5008168;28;20314;-66
2022/05/22 08:28:37;;;;;;;2.20;1.02;;;25.30;64.40;;;;;;5008036;28;20191;-66
2022/05/22 08:31:03;;;;;;;2.42;0.95;;;25.90;62.80;;;;;;5007695;28;20278;-66
2022/05/22 08:33:29;;;;;;;1.70;0.80;;;25.80;63.00;;;;;;5008251;28;20187;-66
2022/05/22 08:35:54;;;;;;;2.20;1.05;;;25.70;62.60;;;;;;5008048;28;20590;-65
2022/05/22 08:38:20;;;;;;;2.55;0.90;;;26.20;61.30;;;;;;5008361;28;20738;-66
2022/05/22 08:40:49;;;;;;;2.40;0.80;;;25.90;61.20;;;;;;5008108;28;20214;-65
2022/05/22 08:43:22;;;;;;;2.20;1.08;;;25.70;64.00;;;;;;5007725;28;20194;-66
2022/05/22 08:45:56;;;;;;;1.50;0.65;;;25.80;65.10;;;;;;5007610;28;20194;-66
2022/05/22 08:48:58;;;;;;;2.63;1.02;;;26.60;61.30;;;;;;5007942;28;20186;-66
2022/05/22 08:51:32;;;;;;;7.15;1.23;;;26.30;62.20;;;;;;5007966;28;20216;-65
2022/05/22 08:54:11;;;;;;;1.60;0.70;;;26.10;63.00;;;;;;5000680;28;20192;-65
2022/05/22 08:59:25;;;;;;;2.17;0.70;;;26.20;61.40;;;;;;5003190;28;20256;-66
2022/05/22 09:02:03;;;;;;;1.42;0.60;;;26.20;61.80;;;;;;5001644;28;20182;-66
2022/05/22 09:04:48;;;;;;;7.03;1.05;;;25.80;62.00;;;;;;4998049;28;20534;-66
2022/05/22 09:07:29;;;;;;;3.63;0.88;;;26.70;59.10;;;;;;5005499;28;20183;-66
2022/05/22 09:10:07;;;;;;;3.35;0.80;;;26.00;60.20;;;;;;5005835;28;20190;-67
2022/05/22 09:12:56;;;;;;;2.50;0.80;;;25.50;62.20;;;;;;5002350;28;20269;-66
2022/05/22 09:16:02;;;;;;;1.60;0.70;;;25.60;62.10;;;;;;5006243;28;20248;-66
2022/05/22 09:18:36;;;;;;;1.80;0.70;;;25.30;62.60;;;;;;5003194;28;20542;-67
2022/05/22 09:21:07;;;;;;;3.92;0.90;;;25.40;62.20;;;;;;5007058;28;20225;-66
2022/05/22 09:23:57;;;;;;;1.40;0.50;;;25.40;61.00;;;;;;5007310;28;20190;-66
2022/05/22 09:27:00;;;;;;;2.65;1.00;;;25.50;61.20;;;;;;5003813;28;20343;-66
2022/05/22 09:29:44;;;;;;;4.43;1.08;;;25.70;59.00;;;;;;5010885;28;20179;-66
2022/05/22 09:32:41;;;;;;;6.28;0.70;;;25.10;62.30;;;;;;5011247;28;20189;-66
2022/05/22 09:35:45;;;;;;;3.05;0.73;;;25.40;61.40;;;;;;5008835;28;20194;-66
2022/05/22 09:38:31;;;;;;;3.88;1.02;;;25.50;60.40;;;;;;5007202;28;20189;-66
2022/05/22 09:41:26;;;;;;;1.83;0.70;;;25.60;60.20;;;;;;5008146;28;21093;-66
2022/05/22 09:44:04;;;;;;;1.67;0.63;;;25.50;61.80;;;;;;5006009;28;20190;-66
2022/05/22 09:46:41;;;;;;;5.03;0.77;;;25.10;63.40;;;;;;5002791;28;20638;-65
2022/05/22 09:49:24;;;;;;;1.92;0.75;;;25.30;62.00;;;;;;5010843;28;20182;-66
2022/05/22 09:52:02;;;;;;;3.78;0.70;;;25.50;63.50;;;;;;5010405;28;20266;-66
2022/05/22 09:54:55;;;;;;;1.75;0.60;;;25.10;62.40;;;;;;5009481;28;20187;-65
2022/05/22 09:57:43;;;;;;;2.72;0.98;;;25.70;60.40;;;;;;5010278;28;20646;-66
2022/05/22 10:00:11;;;;;;;2.63;0.98;;;25.80;60.30;;;;;;5009781;28;20221;-66
2022/05/22 10:02:54;;;;;;;2.03;0.88;;;25.60;61.30;;;;;;5010123;28;20178;-65
2022/05/22 10:05:43;;;;;;;1.60;0.65;;;25.80;61.10;;;;;;5010076;28;20273;-65
2022/05/22 10:08:15;;;;;;;2.60;0.82;;;26.30;58.50;;;;;;5009629;28;20607;-66
2022/05/22 10:10:57;;;;;;;4.10;0.80;;;26.10;58.90;;;;;;5010455;28;20187;-65
2022/05/22 10:13:37;;;;;;;2.07;0.80;;;25.50;60.00;;;;;;5010646;28;20274;-65
2022/05/22 10:16:03;;;;;;;2.13;0.80;;;25.10;65.00;;;;;;5009187;28;20190;-65
2022/05/22 10:18:53;;;;;;;2.23;1.00;;;25.10;60.60;;;;;;5009962;28;20209;-65
2022/05/22 10:21:51;;;;;;;1.73;0.80;;;24.50;64.50;;;;;;5010018;28;20272;-65
2022/05/22 10:24:22;;;;;;;2.00;0.70;;;24.40;62.20;;;;;;4998794;28;20421;-64
2022/05/22 10:26:58;;;;;;;1.77;0.67;;;24.20;60.40;;;;;;5009742;28;20476;-65
2022/05/22 10:29:31;;;;;;;2.20;0.97;;;23.70;64.70;;;;;;5009846;28;20807;-65
2022/05/22 10:32:15;;;;;;;2.10;0.90;;;23.80;61.40;;;;;;5009390;28;20421;-65
2022/05/22 10:34:54;;;;;;;1.93;0.90;;;23.60;61.30;;;;;;5005852;28;20434;-65
2022/05/22 10:37:45;;;;;;;2.60;0.80;;;23.80;61.90;;;;;;5008000;28;20421;-65
2022/05/22 10:40:18;;;;;;;2.43;0.77;;;23.70;61.10;;;;;;5007055;28;20465;-65
2022/05/22 10:42:49;;;;;;;4.23;0.80;;;23.60;61.80;;;;;;5006157;28;20773;-65
2022/05/22 10:45:21;;;;;;;2.60;0.73;;;23.50;61.80;;;;;;5008040;28;20512;-65
2022/05/22 10:47:47;;;;;;;1.60;0.80;;;23.50;62.50;;;;;;5010107;28;20433;-65
2022/05/22 10:50:21;;;;;;;1.90;0.87;;;23.60;64.60;;;;;;5009092;28;20508;-65
2022/05/22 10:52:48;;;;;;;15.70;1.10;;;23.60;65.60;;;;;;5006215;28;20437;-65
2022/05/22 10:55:30;;;;;;;2.50;1.23;;;23.90;60.40;;;;;;5000596;28;20430;-65
2022/05/22 10:57:59;;;;;;;2.63;0.77;;;24.00;60.60;;;;;;4999393;28;20429;-65
2022/05/22 11:00:26;;;;;;;2.33;0.73;;;24.00;60.30;;;;;;5003612;28;20469;-65
2022/05/22 11:02:52;;;;;;;2.60;0.70;;;23.90;61.10;;;;;;5002586;28;20568;-65
2022/05/22 11:05:26;;;;;;;1.50;0.60;;;23.60;60.10;;;;;;4998491;28;20438;-65
2022/05/22 11:07:54;;;;;;;5.97;1.27;;;23.40;62.30;;;;;;5001773;28;20961;-66
2022/05/22 11:10:38;;;;;;;2.10;0.77;;;23.30;63.10;;;;;;5007378;28;20481;-66
2022/05/22 11:13:12;;;;;;;1.60;0.70;;;23.40;61.20;;;;;;5002844;28;20429;-65
2022/05/22 11:15:42;;;;;;;2.03;0.83;;;23.60;59.40;;;;;;5007801;28;20545;-66
2022/05/22 11:18:25;;;;;;;2.43;0.80;;;23.60;61.60;;;;;;5007321;28;20437;-66
2022/05/22 11:21:10;;;;;;;2.17;0.73;;;23.80;58.70;;;;;;5012112;28;20499;-65
2022/05/22 11:23:44;;;;;;;1.60;0.70;;;24.00;58.00;;;;;;5002820;28;20930;-66
2022/05/22 11:26:25;;;;;;;3.13;1.00;;;24.10;58.40;;;;;;5009936;28;20433;-66
2022/05/22 11:28:51;;;;;;;3.70;1.00;;;24.10;57.90;;;;;;5008788;28;20569;-65
2022/05/22 11:31:35;;;;;;;1.50;0.70;;;24.30;58.00;;;;;;5009160;28;20434;-65
2022/05/22 11:34:03;;;;;;;10.40;1.10;;;24.00;59.40;;;;;;5008259;28;20232;-65
2022/05/22 11:36:54;;;;;;;1.67;0.70;;;24.20;58.10;;;;;;5011168;28;20488;-66
2022/05/22 11:39:38;;;;;;;1.50;0.70;;;24.00;58.00;;;;;;5005661;28;20437;-66
2022/05/22 11:42:33;;;;;;;4.10;0.93;;;23.70;59.70;;;;;;5006747;28;20479;-66
2022/05/22 11:45:17;;;;;;;1.67;0.80;;;23.80;60.10;;;;;;5010995;28;20925;-66
2022/05/22 11:48:15;;;;;;;1.57;0.63;;;24.00;57.50;;;;;;5009263;28;20440;-66
2022/05/22 11:50:58;;;;;;;1.60;0.70;;;24.10;59.20;;;;;;4996533;28;20471;-66
2022/05/22 11:53:42;;;;;;;2.13;0.90;;;24.40;58.10;;;;;;4995779;28;20434;-66
2022/05/22 11:56:32;;;;;;;2.80;1.20;;;24.60;58.10;;;;;;5002995;28;20524;-66
2022/05/22 11:59:08;;;;;;;1.80;0.90;;;24.60;61.10;;;;;;5004861;28;20434;-66
2022/05/22 12:01:50;;;;;;;3.00;1.13;;;24.60;60.10;;;;;;5001831;28;20983;-67
2022/05/22 12:04:27;;;;;;;1.57;0.67;;;24.80;57.40;;;;;;5001501;28;20611;-65
2022/05/22 12:07:02;;;;;;;1.70;0.70;;;24.50;58.90;;;;;;5001401;28;20425;-66
2022/05/22 12:09:49;;;;;;;4.73;0.97;;;24.30;58.90;;;;;;4997521;28;20422;-66
2022/05/22 12:12:33;;;;;;;3.33;0.80;;;24.50;59.50;;;;;;5005583;28;20445;-66
2022/05/22 12:15:37;;;;;;;2.13;0.70;;;24.60;57.40;;;;;;5010245;28;20428;-66
2022/05/22 12:18:40;;;;;;;6.40;0.90;;;24.80;57.90;;;;;;5000182;28;20433;-66
2022/05/22 12:21:33;;;;;;;1.80;0.77;;;25.10;58.40;;;;;;5007629;28;20587;-65
2022/05/22 12:24:13;;;;;;;1.83;0.70;;;25.10;60.10;;;;;;5000397;28;20429;-66
2022/05/22 12:26:41;;;;;;;1.60;0.70;;;25.00;57.10;;;;;;5005224;28;20441;-65
2022/05/22 12:29:14;;;;;;;2.60;0.70;;;24.70;57.50;;;;;;5007732;28;20417;-66
2022/05/22 12:31:42;;;;;;;2.60;1.17;;;24.40;59.50;;;;;;5006142;28;20441;-66
2022/05/22 12:34:18;;;;;;;3.10;0.90;;;24.50;59.60;;;;;;5005771;28;20490;-66
2022/05/22 12:36:53;;;;;;;1.90;0.80;;;24.80;59.40;;;;;;5006839;28;20417;-66
2022/05/22 12:39:19;;;;;;;5.80;1.10;;;25.00;58.70;;;;;;5005722;28;20431;-66
2022/05/22 12:42:00;;;;;;;2.00;0.70;;;25.00;60.30;;;;;;5003819;28;21081;-66
2022/05/22 12:44:28;;;;;;;1.70;0.67;;;25.30;58.40;;;;;;5004323;28;20191;-66
2022/05/22 12:46:55;;;;;;;1.97;1.00;;;25.50;60.70;;;;;;5006227;28;20437;-66
2022/05/22 12:49:25;;;;;;;1.73;0.80;;;25.60;56.50;;;;;;5004700;28;20516;-66
2022/05/22 12:52:06;;;;;;;2.00;0.70;;;25.60;56.10;;;;;;5004310;28;20433;-65
2022/05/22 12:54:35;;;;;;;2.57;0.77;;;25.50;58.30;;;;;;5003701;28;20422;-66
2022/05/22 12:57:19;;;;;;;2.77;0.70;;;25.30;56.80;;;;;;5008498;28;20424;-65
2022/05/22 12:59:56;;;;;;;1.60;0.60;;;25.30;58.00;;;;;;5000531;28;20425;-65
2022/05/22 13:02:32;;;;;;;1.60;0.63;;;25.20;59.30;;;;;;5007244;28;20510;-66
2022/05/22 13:05:00;;;;;;;2.13;0.90;;;25.30;57.80;;;;;;5008251;28;20484;-66
2022/05/22 13:07:34;;;;;;;2.07;0.70;;;25.20;59.20;;;;;;5014400;28;20429;-66
2022/05/22 13:10:11;;;;;;;3.13;0.80;;;25.00;62.60;;;;;;4998655;28;20434;-66
2022/05/22 13:12:38;;;;;;;5.63;1.10;;;25.10;58.70;;;;;;5010003;28;20588;-66
2022/05/22 13:15:03;;;;;;;1.80;0.70;;;25.40;58.20;;;;;;5003092;28;20564;-66
2022/05/22 13:17:46;;;;;;;3.90;0.80;;;25.50;55.80;;;;;;5000711;28;20447;-66